createdAt,value
2023-06-21T00:02:25.003Z,186.79
2023-06-21T00:04:57.520Z,193.04
2023-06-21T00:07:29.870Z,189.06
2023-06-21T00:10:02.646Z,188.17
2023-06-21T00:12:34.941Z,183.61
2023-06-21T00:15:11.158Z,180.98
2023-06-21T00:17:43.549Z,181.51
2023-06-21T00:20:17.405Z,181.66
2023-06-21T00:22:57.293Z,180.74
2023-06-21T00:25:29.841Z,169.34
2023-06-21T00:28:02.128Z,170.01
2023-06-21T00:30:38.797Z,173.06
2023-06-21T00:33:11.085Z,179.36
2023-06-21T00:35:43.449Z,175.24
2023-06-21T00:38:15.901Z,174.44
2023-06-21T00:40:51.223Z,177.89
2023-06-21T00:43:24.438Z,180.44
2023-06-21T00:46:00.531Z,179.11
2023-06-21T00:48:36.066Z,175.61
2023-06-21T00:51:09.067Z,181.81
2023-06-21T00:53:41.848Z,183.24
2023-06-21T00:56:18.041Z,177.16
2023-06-21T00:58:50.385Z,180.24
2023-06-21T01:01:26.581Z,178.26
2023-06-21T01:04:00.173Z,173.49
2023-06-21T01:06:41.325Z,171.85
2023-06-21T01:09:28.218Z,173.05
2023-06-21T01:12:12.078Z,164.63
2023-06-21T01:14:58.560Z,167.55
2023-06-21T01:17:39.031Z,171.64
2023-06-21T01:20:19.899Z,162.66
2023-06-21T01:23:11.190Z,163.93
2023-06-21T01:26:00.633Z,160.17
2023-06-21T01:29:07.876Z,165.83
2023-06-21T01:31:43.655Z,161.94
2023-06-21T01:34:17.220Z,164.61
2023-06-21T01:36:49.710Z,168.94
2023-06-21T01:39:22.111Z,161.98
2023-06-21T01:41:54.355Z,164.21
2023-06-21T01:44:31.082Z,169.64
2023-06-21T01:47:04.867Z,174.46
2023-06-21T01:49:39.714Z,177.32
2023-06-21T01:52:13.109Z,174.95
2023-06-21T01:54:46.947Z,206.31
2023-06-21T01:57:22.515Z,204.38
2023-06-21T01:59:57.576Z,208.58
2023-06-21T02:02:30.467Z,213.93
2023-06-21T02:05:03.837Z,208.64
2023-06-21T02:07:36.694Z,208.64
2023-06-21T02:10:11.160Z,226.14
2023-06-21T02:12:45.617Z,224.88
2023-06-21T02:15:21.077Z,221.09
2023-06-21T02:17:54.928Z,230.25
2023-06-21T02:20:27.623Z,234.82
2023-06-21T02:23:00.253Z,231.31
2023-06-21T02:25:36.690Z,217.36
2023-06-21T02:28:09.833Z,227.91
2023-06-21T02:30:44.706Z,228.32
2023-06-21T02:33:17.015Z,229.69
2023-06-21T02:35:49.470Z,228.74
2023-06-21T02:38:21.859Z,242.04
2023-06-21T02:40:54.319Z,231.69
2023-06-21T02:43:26.760Z,232.64
2023-06-21T02:46:01.979Z,229.17
2023-06-21T02:48:34.354Z,236.18
2023-06-21T02:51:06.610Z,233.30
2023-06-21T02:53:38.878Z,245.38
2023-06-21T02:56:11.445Z,234.45
2023-06-21T02:58:43.803Z,237.19
2023-06-21T03:01:18.732Z,244.63
2023-06-21T03:03:51.158Z,249.57
2023-06-21T03:06:30.735Z,251.18
2023-06-21T03:09:04.796Z,244.81
2023-06-21T03:11:37.102Z,256.30
2023-06-21T03:14:09.384Z,258.01
2023-06-21T03:16:45.573Z,254.41
2023-06-21T03:19:18.972Z,252.41
2023-06-21T03:21:51.205Z,256.76
2023-06-21T03:24:23.618Z,240.50
2023-06-21T03:26:56.048Z,250.64
2023-06-21T03:29:28.331Z,250.83
2023-06-21T03:32:03.886Z,250.41
2023-06-21T03:34:36.166Z,248.63
2023-06-21T03:37:09.224Z,250.17
2023-06-21T03:39:41.424Z,249.65
2023-06-21T03:42:13.800Z,245.66
2023-06-21T03:44:46.063Z,247.54
2023-06-21T03:47:23.179Z,245.24
2023-06-21T03:49:58.867Z,241.71
2023-06-21T03:52:31.193Z,241.34
2023-06-21T03:55:03.613Z,238.51
2023-06-21T03:57:35.997Z,243.72
2023-06-21T04:00:11.218Z,240.04
2023-06-21T04:02:46.140Z,229.94
2023-06-21T04:05:18.493Z,241.59
2023-06-21T04:07:51.138Z,235.09
2023-06-21T04:10:23.703Z,237.15
2023-06-21T04:12:56.044Z,235.40
2023-06-21T04:15:30.385Z,241.86
2023-06-21T04:18:05.525Z,237.39
2023-06-21T04:20:37.829Z,239.50
2023-06-21T04:23:10.112Z,234.13
2023-06-21T04:25:42.476Z,240.07
2023-06-21T04:28:14.954Z,228.13
2023-06-21T04:30:47.230Z,235.19
2023-06-21T04:33:22.136Z,232.21
2023-06-21T04:35:54.684Z,229.84
2023-06-21T04:38:27.008Z,225.64
2023-06-21T04:40:59.585Z,228.64
2023-06-21T04:43:31.869Z,226.57
2023-06-21T04:46:04.774Z,226.10
2023-06-21T04:48:39.701Z,225.70
2023-06-21T04:51:16.492Z,225.81
2023-06-21T04:53:50.361Z,223.66
2023-06-21T04:56:24.045Z,224.84
2023-06-21T04:58:56.350Z,218.46
2023-06-21T05:01:28.730Z,226.16
2023-06-21T05:04:03.635Z,221.66
2023-06-21T05:06:35.981Z,219.99
2023-06-21T05:09:10.110Z,219.04
2023-06-21T05:11:42.717Z,210.38
2023-06-21T05:14:15.202Z,212.04
2023-06-21T05:16:47.650Z,214.46
2023-06-21T05:19:22.506Z,219.89
2023-06-21T05:21:54.919Z,212.09
2023-06-21T05:24:27.212Z,211.10
2023-06-21T05:26:59.527Z,221.72
2023-06-21T05:29:36.202Z,209.65
2023-06-21T05:32:09.099Z,205.23
2023-06-21T05:34:43.959Z,199.98
2023-06-21T05:37:16.361Z,207.36
2023-06-21T05:39:49.542Z,197.14
2023-06-21T05:42:21.829Z,200.85
2023-06-21T05:44:54.065Z,197.19
2023-06-21T05:47:26.469Z,201.16
2023-06-21T05:50:01.403Z,200.11
2023-06-21T05:52:33.772Z,200.05
2023-06-21T05:55:06.093Z,205.52
2023-06-21T05:57:38.525Z,202.71
2023-06-21T06:00:12.695Z,200.71
2023-06-21T06:02:45.100Z,197.14
2023-06-21T06:05:20.214Z,187.10
2023-06-21T06:07:52.752Z,189.22
2023-06-21T06:10:25.310Z,193.65
2023-06-21T06:12:58.698Z,187.64
2023-06-21T06:15:31.160Z,176.86
2023-06-21T06:18:03.484Z,165.26
2023-06-21T06:20:38.405Z,162.63
2023-06-21T06:23:14.912Z,153.59
2023-06-21T06:25:47.500Z,149.28
2023-06-21T06:28:20.607Z,149.09
2023-06-21T06:30:52.836Z,147.00
2023-06-21T06:33:25.077Z,140.66
2023-06-21T06:36:01.153Z,140.56
2023-06-21T06:38:33.393Z,138.42
2023-06-21T06:41:05.762Z,139.23
2023-06-21T06:43:38.577Z,132.66
2023-06-21T06:46:10.954Z,136.45
2023-06-21T06:48:43.259Z,124.82
2023-06-21T06:51:18.124Z,127.74
2023-06-21T06:53:50.907Z,128.49
2023-06-21T06:56:24.334Z,127.86
2023-06-21T06:58:56.663Z,128.62
2023-06-21T07:01:29.001Z,132.64
2023-06-21T07:04:01.476Z,138.39
2023-06-21T07:06:37.542Z,138.73
2023-06-21T07:09:09.826Z,136.39
2023-06-21T07:11:42.123Z,145.58
2023-06-21T07:14:14.401Z,162.61
2023-06-21T07:16:48.748Z,167.41
2023-06-21T07:19:21.114Z,162.15
2023-06-21T07:21:56.000Z,171.59
2023-06-21T07:24:28.307Z,165.43
2023-06-21T07:27:01.822Z,156.66
2023-06-21T07:29:34.248Z,160.56
2023-06-21T07:32:06.607Z,164.74
2023-06-21T07:34:38.873Z,156.81
2023-06-21T07:37:16.615Z,156.19
2023-06-21T07:39:54.334Z,159.01
2023-06-21T07:42:28.561Z,167.21
2023-06-21T07:45:00.834Z,161.23
2023-06-21T07:47:33.302Z,169.94
2023-06-21T07:50:21.378Z,165.53
2023-06-21T07:52:57.140Z,156.59
2023-06-21T07:55:29.523Z,136.18
2023-06-21T07:58:02.042Z,134.61
2023-06-21T08:00:34.390Z,129.46
2023-06-21T08:03:06.671Z,116.98
2023-06-21T08:05:38.975Z,108.65
2023-06-21T08:08:15.580Z,98.49
2023-06-21T08:10:47.864Z,94.99
2023-06-21T08:13:23.899Z,93.01
2023-06-21T08:15:56.177Z,94.50
2023-06-21T08:18:28.499Z,92.89
2023-06-21T08:21:00.752Z,84.45
2023-06-21T08:23:35.589Z,74.54
2023-06-21T08:26:07.893Z,65.69
2023-06-21T08:28:40.182Z,60.63
2023-06-21T08:31:12.646Z,56.93
2023-06-21T08:33:45.120Z,56.52
2023-06-21T08:36:17.601Z,53.49
2023-06-21T08:38:52.413Z,52.40
2023-06-21T08:41:24.722Z,57.76
2023-06-21T08:43:57.049Z,71.98
2023-06-21T08:46:31.810Z,79.00
2023-06-21T08:49:09.069Z,115.19
2023-06-21T08:51:43.301Z,130.79
2023-06-21T08:54:20.867Z,125.36
2023-06-21T08:57:00.951Z,112.72
2023-06-21T08:59:40.859Z,112.41
2023-06-21T09:02:28.960Z,117.38
2023-06-21T09:05:07.698Z,108.64
2023-06-21T09:07:42.521Z,103.90
2023-06-21T09:10:22.097Z,84.89
2023-06-21T09:12:56.223Z,98.81
2023-06-21T09:15:30.267Z,96.33
2023-06-21T09:18:02.956Z,78.27
2023-06-21T09:20:36.008Z,71.24
2023-06-21T09:23:08.537Z,48.16
2023-06-21T09:25:46.097Z,36.70
2023-06-21T09:28:19.613Z,25.51
2023-06-21T09:30:52.013Z,20.03
2023-06-21T09:33:24.760Z,20.07
2023-06-21T09:35:57.928Z,18.43
2023-06-21T09:38:34.120Z,16.28
2023-06-21T09:41:11.974Z,14.40
2023-06-21T09:43:47.206Z,14.74
2023-06-21T09:46:19.968Z,12.76
2023-06-21T09:48:52.260Z,15.18
2023-06-21T09:51:29.584Z,15.71
2023-06-21T09:54:01.813Z,14.88
2023-06-21T09:56:38.436Z,18.09
2023-06-21T09:59:19.257Z,17.74
2023-06-21T10:01:53.658Z,20.22
2023-06-21T10:04:25.928Z,20.51
2023-06-21T10:06:58.258Z,20.11
2023-06-21T10:09:30.520Z,21.78
2023-06-21T10:12:05.363Z,18.11
2023-06-21T10:14:37.623Z,18.52
2023-06-21T10:17:10.226Z,18.46
2023-06-21T10:19:46.751Z,19.28
2023-06-21T10:22:24.725Z,19.54
2023-06-21T10:24:58.456Z,19.98
2023-06-21T10:27:33.799Z,19.56
2023-06-21T10:30:08.973Z,19.91
2023-06-21T10:32:43.909Z,19.82
2023-06-21T10:35:20.873Z,23.13
2023-06-21T10:38:03.201Z,22.02
2023-06-21T10:40:39.193Z,21.60
2023-06-21T10:43:15.137Z,19.97
2023-06-21T10:45:49.200Z,17.79
2023-06-21T10:48:22.352Z,15.01
2023-06-21T10:50:57.218Z,16.06
2023-06-21T10:53:32.521Z,16.80
2023-06-21T10:56:07.475Z,17.57
2023-06-21T10:58:46.070Z,20.26
2023-06-21T11:01:19.275Z,20.09
2023-06-21T11:03:51.597Z,18.41
2023-06-21T11:06:34.295Z,19.47
2023-06-21T11:09:13.993Z,20.54
2023-06-21T11:11:56.020Z,20.69
2023-06-21T11:14:35.931Z,17.99
2023-06-21T11:17:16.428Z,19.24
2023-06-21T11:19:49.521Z,17.92
2023-06-21T11:22:23.138Z,18.98
2023-06-21T11:25:02.104Z,21.71
2023-06-21T11:27:34.879Z,23.61
2023-06-21T11:30:14.111Z,23.64
2023-06-21T11:32:59.306Z,22.86
2023-06-21T11:35:53.274Z,22.22
2023-06-21T11:38:25.816Z,23.14
2023-06-21T11:40:58.046Z,26.06
2023-06-21T11:43:31.039Z,27.74
2023-06-21T11:46:09.407Z,27.54
2023-06-21T11:48:45.242Z,28.41
2023-06-21T11:51:17.466Z,24.86
2023-06-21T11:53:51.610Z,27.36
2023-06-21T11:56:25.177Z,26.76
2023-06-21T11:58:57.410Z,24.06
2023-06-21T12:01:32.219Z,26.91
2023-06-21T12:04:05.112Z,24.33
2023-06-21T12:06:38.067Z,25.20
2023-06-21T12:09:14.245Z,22.61
2023-06-21T12:11:46.602Z,22.71
2023-06-21T12:14:19.056Z,23.14
2023-06-21T12:16:54.784Z,20.44
2023-06-21T12:19:27.057Z,23.81
2023-06-21T12:22:05.662Z,26.56
2023-06-21T12:24:38.081Z,22.39
2023-06-21T12:27:10.619Z,22.80
2023-06-21T12:29:42.916Z,19.41
2023-06-21T12:32:19.600Z,21.64
2023-06-21T12:34:52.438Z,15.82
2023-06-21T12:37:25.436Z,16.09
2023-06-21T12:39:58.741Z,15.83
2023-06-21T12:42:34.418Z,17.62
2023-06-21T12:45:06.966Z,14.31
2023-06-21T12:47:42.015Z,13.44
2023-06-21T12:50:15.169Z,17.24
2023-06-21T12:52:47.393Z,15.91
2023-06-21T12:55:21.452Z,15.62
2023-06-21T12:57:53.831Z,15.21
2023-06-21T13:00:26.650Z,17.10
2023-06-21T13:03:01.839Z,18.70
2023-06-21T13:05:34.292Z,18.71
2023-06-21T13:08:09.468Z,17.88
2023-06-21T13:10:41.731Z,16.38
2023-06-21T13:13:14.123Z,17.97
2023-06-21T13:15:46.469Z,17.10
2023-06-21T13:18:23.637Z,17.15
2023-06-21T13:20:59.321Z,23.15
2023-06-21T13:23:32.143Z,15.19
2023-06-21T13:26:04.664Z,17.57
2023-06-21T13:28:36.964Z,17.87
2023-06-21T13:31:09.508Z,16.14
2023-06-21T13:33:44.412Z,15.38
2023-06-21T13:36:16.768Z,16.29
2023-06-21T13:38:49.023Z,14.75
2023-06-21T13:41:21.401Z,14.73
2023-06-21T13:43:53.745Z,18.79
2023-06-21T13:46:26.253Z,17.63
2023-06-21T13:49:01.188Z,19.24
2023-06-21T13:51:33.521Z,19.85
2023-06-21T13:54:05.787Z,18.88
2023-06-21T13:56:38.173Z,15.84
2023-06-21T13:59:10.435Z,20.68
2023-06-21T14:01:42.735Z,19.79
2023-06-21T14:04:17.836Z,17.66
2023-06-21T14:06:50.386Z,20.71
2023-06-21T14:09:22.597Z,20.09
2023-06-21T14:11:55.047Z,19.81
2023-06-21T14:14:27.631Z,17.62
2023-06-21T14:17:00.061Z,17.40
2023-06-21T14:19:34.949Z,20.14
2023-06-21T14:22:07.314Z,21.59
2023-06-21T14:24:39.628Z,21.00
2023-06-21T14:27:11.965Z,17.64
2023-06-21T14:29:47.435Z,14.45
2023-06-21T14:32:19.677Z,13.37
2023-06-21T14:34:54.895Z,13.69
2023-06-21T14:37:28.089Z,12.47
2023-06-21T14:40:00.760Z,14.30
2023-06-21T14:42:33.167Z,13.19
2023-06-21T14:45:05.388Z,16.20
2023-06-21T14:47:37.729Z,16.22
2023-06-21T14:50:13.396Z,16.97
2023-06-21T14:52:45.979Z,18.90
2023-06-21T14:55:18.251Z,16.75
2023-06-21T14:57:54.449Z,19.33
2023-06-21T15:00:27.571Z,16.61
2023-06-21T15:03:00.916Z,25.92
2023-06-21T15:05:35.812Z,22.14
2023-06-21T15:08:08.202Z,23.64
2023-06-21T15:10:40.370Z,25.16
2023-06-21T15:13:12.647Z,22.67
2023-06-21T15:15:45.298Z,20.54
2023-06-21T15:18:18.094Z,20.35
2023-06-21T15:20:52.936Z,23.66
2023-06-21T15:23:25.135Z,24.87
2023-06-21T15:25:57.450Z,22.87
2023-06-21T15:28:29.818Z,24.26
2023-06-21T15:31:04.433Z,23.94
2023-06-21T15:33:36.858Z,21.34
2023-06-21T15:36:11.915Z,23.47
2023-06-21T15:38:44.151Z,21.39
2023-06-21T15:41:16.387Z,19.89
2023-06-21T15:43:48.640Z,22.14
2023-06-21T15:46:22.077Z,20.33
2023-06-21T15:48:54.681Z,20.99
2023-06-21T15:51:29.674Z,20.04
2023-06-21T15:54:02.081Z,18.54
2023-06-21T15:56:34.363Z,18.89
2023-06-21T15:59:06.583Z,18.08
2023-06-21T16:01:38.888Z,18.17
2023-06-21T16:04:11.430Z,18.59
2023-06-21T16:06:46.430Z,17.55
2023-06-21T16:09:18.629Z,18.37
2023-06-21T16:11:50.881Z,17.73
2023-06-21T16:14:23.315Z,15.18
2023-06-21T16:16:55.843Z,14.34
2023-06-21T16:19:28.871Z,14.51
2023-06-21T16:22:03.775Z,14.93
2023-06-21T16:24:36.044Z,16.86
2023-06-21T16:27:09.850Z,16.59
2023-06-21T16:29:42.145Z,19.11
2023-06-21T16:32:14.386Z,16.18
2023-06-21T16:34:47.124Z,15.68
2023-06-21T16:37:21.976Z,15.39
2023-06-21T16:39:54.772Z,16.37
2023-06-21T16:42:30.393Z,16.40
2023-06-21T16:45:05.638Z,16.56
2023-06-21T16:47:38.135Z,16.99
2023-06-21T16:50:11.030Z,18.04
2023-06-21T16:52:46.019Z,16.41
2023-06-21T16:55:18.432Z,15.91
2023-06-21T16:57:50.803Z,16.38
2023-06-21T17:00:23.641Z,15.29
2023-06-21T17:02:56.055Z,15.71
2023-06-21T17:05:29.391Z,13.04
2023-06-21T17:08:04.490Z,13.24
2023-06-21T17:10:36.779Z,10.74
2023-06-21T17:13:08.978Z,12.36
2023-06-21T17:15:41.171Z,11.23
2023-06-21T17:18:14.105Z,12.15
2023-06-21T17:20:46.437Z,11.31
2023-06-21T17:23:21.286Z,11.20
2023-06-21T17:25:53.733Z,12.60
2023-06-21T17:28:25.977Z,11.14
2023-06-21T17:30:58.544Z,11.87
2023-06-21T17:33:30.932Z,11.44
2023-06-21T17:36:07.583Z,11.14
2023-06-21T17:38:42.454Z,11.00
2023-06-21T17:41:14.690Z,14.16
2023-06-21T17:43:47.035Z,12.13
2023-06-21T17:46:19.630Z,12.65
2023-06-21T17:48:51.995Z,11.75
2023-06-21T17:51:24.971Z,10.23
2023-06-21T17:54:00.351Z,11.24
2023-06-21T17:56:33.961Z,13.64
2023-06-21T17:59:07.360Z,13.94
2023-06-21T18:01:39.629Z,13.36
2023-06-21T18:04:12.175Z,13.73
2023-06-21T18:06:44.950Z,13.64
2023-06-21T18:09:19.861Z,14.51
2023-06-21T18:11:52.186Z,13.64
2023-06-21T18:14:24.566Z,13.11
2023-06-21T18:16:56.916Z,14.79
2023-06-21T18:19:29.177Z,13.74
2023-06-21T18:22:12.244Z,13.64
2023-06-21T18:24:48.521Z,14.26
2023-06-21T18:27:20.936Z,13.61
2023-06-21T18:30:02.068Z,13.23
2023-06-21T18:32:36.835Z,13.72
2023-06-21T18:35:10.652Z,13.48
2023-06-21T18:37:44.220Z,14.06
2023-06-21T18:40:20.028Z,17.03
2023-06-21T18:42:52.216Z,17.95
2023-06-21T18:45:24.470Z,14.51
2023-06-21T18:47:56.971Z,14.49
2023-06-21T18:50:29.515Z,15.43
2023-06-21T18:53:02.061Z,17.36
2023-06-21T18:55:36.936Z,15.33
2023-06-21T18:58:09.157Z,17.46
2023-06-21T19:00:41.453Z,16.56
2023-06-21T19:03:13.856Z,15.41
2023-06-21T19:05:46.531Z,17.19
2023-06-21T19:08:18.827Z,17.39
2023-06-21T19:10:53.720Z,17.54
2023-06-21T19:13:26.108Z,18.64
2023-06-21T19:16:00.630Z,18.14
2023-06-21T19:18:32.864Z,17.89
2023-06-21T19:21:05.098Z,18.68
2023-06-21T19:23:37.306Z,18.16
2023-06-21T19:26:12.233Z,16.87
2023-06-21T19:28:44.460Z,17.56
2023-06-21T19:31:18.408Z,18.12
2023-06-21T19:33:50.769Z,18.15
2023-06-21T19:36:23.311Z,18.09
2023-06-21T19:38:55.577Z,17.61
2023-06-21T19:41:30.452Z,18.28
2023-06-21T19:44:02.670Z,19.87
2023-06-21T19:46:35.769Z,18.91
2023-06-21T19:49:08.070Z,19.30
2023-06-21T19:51:40.312Z,21.36
2023-06-21T19:54:12.591Z,20.19
2023-06-21T19:56:49.769Z,19.62
2023-06-21T19:59:22.210Z,19.49
2023-06-21T20:01:54.629Z,22.06
2023-06-21T20:04:26.996Z,21.36
2023-06-21T20:06:59.395Z,21.64
2023-06-21T20:09:31.973Z,22.09
2023-06-21T20:12:06.941Z,22.34
2023-06-21T20:14:39.960Z,20.99
2023-06-21T20:17:12.810Z,21.18
2023-06-21T20:19:45.243Z,21.76
2023-06-21T20:22:18.096Z,21.13
2023-06-21T20:24:52.080Z,22.08
2023-06-21T20:27:27.900Z,20.89
2023-06-21T20:30:00.177Z,20.60
2023-06-21T20:32:32.424Z,20.91
2023-06-21T20:35:05.224Z,21.04
2023-06-21T20:37:39.308Z,22.74
2023-06-21T20:40:15.775Z,23.30
2023-06-21T20:42:50.634Z,24.36
2023-06-21T20:45:31.826Z,28.73
2023-06-21T20:48:04.923Z,29.30
2023-06-21T20:50:37.410Z,28.19
2023-06-21T20:53:09.699Z,29.15
2023-06-21T20:55:42.169Z,29.61
2023-06-21T20:58:18.104Z,31.96
2023-06-21T21:00:52.810Z,34.04
2023-06-21T21:03:25.078Z,35.21
2023-06-21T21:05:57.468Z,33.96
2023-06-21T21:08:29.742Z,30.54
2023-06-21T21:11:01.981Z,28.42
2023-06-21T21:13:38.122Z,26.89
2023-06-21T21:16:10.595Z,25.83
2023-06-21T21:18:42.814Z,27.70
2023-06-21T21:21:15.059Z,26.39
2023-06-21T21:23:47.345Z,29.28
2023-06-21T21:26:19.916Z,25.95
2023-06-21T21:28:54.713Z,26.31
2023-06-21T21:31:27.068Z,27.50
2023-06-21T21:33:59.287Z,26.62
2023-06-21T21:36:33.574Z,28.84
2023-06-21T21:39:05.868Z,31.55
2023-06-21T21:41:38.058Z,30.92
2023-06-21T21:44:13.078Z,30.80
2023-06-21T21:46:45.466Z,30.96
2023-06-21T21:49:17.805Z,32.17
2023-06-21T21:51:50.074Z,32.11
2023-06-21T21:54:22.300Z,29.93
2023-06-21T21:56:54.797Z,30.00
2023-06-21T21:59:29.571Z,29.78
2023-06-21T22:02:01.867Z,28.12
2023-06-21T22:04:37.237Z,30.31
2023-06-21T22:07:10.273Z,31.01
2023-06-21T22:09:42.540Z,30.16
2023-06-21T22:12:15.180Z,28.84
2023-06-21T22:14:51.715Z,28.29
2023-06-21T22:17:26.278Z,32.56
2023-06-21T22:19:58.573Z,33.34
2023-06-21T22:22:31.103Z,31.38
2023-06-21T22:25:03.354Z,31.41
2023-06-21T22:27:35.793Z,28.51
2023-06-21T22:30:11.933Z,28.94
2023-06-21T22:32:44.249Z,30.48
2023-06-21T22:35:16.505Z,33.91
2023-06-21T22:37:48.900Z,31.12
2023-06-21T22:40:21.292Z,30.94
2023-06-21T22:42:56.201Z,31.44
2023-06-21T22:45:31.032Z,30.96
2023-06-21T22:48:08.452Z,30.59
2023-06-21T22:50:40.817Z,29.54
2023-06-21T22:53:13.198Z,30.08
2023-06-21T22:55:46.924Z,30.21
2023-06-21T22:58:19.156Z,30.76
2023-06-21T23:00:55.017Z,31.31
2023-06-21T23:03:29.109Z,32.03
2023-06-21T23:06:01.514Z,29.52
2023-06-21T23:08:33.851Z,31.20
2023-06-21T23:11:06.689Z,31.95
2023-06-21T23:13:38.891Z,32.72
2023-06-21T23:16:14.689Z,35.34
2023-06-21T23:18:46.966Z,33.09
2023-06-21T23:21:19.927Z,34.13
2023-06-21T23:23:52.193Z,32.33
2023-06-21T23:26:27.473Z,35.92
2023-06-21T23:29:02.269Z,34.83
2023-06-21T23:31:37.208Z,34.04
2023-06-21T23:34:12.738Z,34.08
2023-06-21T23:36:47.749Z,34.56
2023-06-21T23:39:20.147Z,34.21
2023-06-21T23:41:52.337Z,35.56
2023-06-21T23:44:28.012Z,35.74
2023-06-21T23:47:03.000Z,37.54
2023-06-21T23:49:35.200Z,36.64
2023-06-21T23:52:07.650Z,34.50
2023-06-21T23:54:40.063Z,37.79
2023-06-21T23:57:12.573Z,38.56
2023-06-21T23:59:44.838Z,37.89
